sensor_id;sensor_type;location;lat;lon;timestamp;pressure;altitude;pressure_sealevel;temperature
79053;BMP280;68451;49.510;6.026;2023-05-10T00:02:08;97500.00;;;12.23
79053;BMP280;68451;49.510;6.026;2023-05-10T00:04:33;97555.66;;;12.56
79053;BMP280;68451;49.510;6.026;2023-05-10T00:06:59;97549.91;;;12.60
79053;BMP280;68451;49.510;6.026;2023-05-10T00:09:24;97529.16;;;12.53
79053;BMP280;68451;49.510;6.026;2023-05-10T00:11:50;97523.94;;;12.53
79053;BMP280;68451;49.510;6.026;2023-05-10T00:14:15;97512.16;;;12.34
79053;BMP280;68451;49.510;6.026;2023-05-10T00:16:41;97530.19;;;12.52
79053;BMP280;68451;49.510;6.026;2023-05-10T00:19:07;97542.84;;;12.60
79053;BMP280;68451;49.510;6.026;2023-05-10T00:21:32;97491.38;;;12.22
79053;BMP280;68451;49.510;6.026;2023-05-10T00:23:59;97544.44;;;12.61
79053;BMP280;68451;49.510;6.026;2023-05-10T00:26:25;97519.88;;;12.45
79053;BMP280;68451;49.510;6.026;2023-05-10T00:28:50;97498.56;;;12.32
79053;BMP280;68451;49.510;6.026;2023-05-10T00:31:16;97548.09;;;12.60
79053;BMP280;68451;49.510;6.026;2023-05-10T00:33:41;97525.13;;;12.45
79053;BMP280;68451;49.510;6.026;2023-05-10T00:36:07;97502.78;;;12.38
79053;BMP280;68451;49.510;6.026;2023-05-10T00:38:33;97540.00;;;12.62
79053;BMP280;68451;49.510;6.026;2023-05-10T00:40:58;97518.81;;;12.41
79053;BMP280;68451;49.510;6.026;2023-05-10T00:43:24;97550.47;;;12.62
79053;BMP280;68451;49.510;6.026;2023-05-10T00:45:49;97551.72;;;12.59
79053;BMP280;68451;49.510;6.026;2023-05-10T00:48:15;97474.00;;;12.16
79053;BMP280;68451;49.510;6.026;2023-05-10T00:50:40;97512.16;;;12.34
79053;BMP280;68451;49.510;6.026;2023-05-10T00:53:07;97476.38;;;12.18
79053;BMP280;68451;49.510;6.026;2023-05-10T00:55:32;97549.38;;;12.57
79053;BMP280;68451;49.510;6.026;2023-05-10T00:57:58;97553.81;;;12.57
79053;BMP280;68451;49.510;6.026;2023-05-10T01:00:23;97545.97;;;12.57
79053;BMP280;68451;49.510;6.026;2023-05-10T01:02:49;97566.34;;;12.55
79053;BMP280;68451;49.510;6.026;2023-05-10T01:05:15;97517.72;;;12.37
79053;BMP280;68451;49.510;6.026;2023-05-10T01:07:40;97478.16;;;12.12
79053;BMP280;68451;49.510;6.026;2023-05-10T01:10:07;97493.34;;;12.15
79053;BMP280;68451;49.510;6.026;2023-05-10T01:12:37;97560.66;;;12.58
79053;BMP280;68451;49.510;6.026;2023-05-10T01:15:03;97486.50;;;12.09
79053;BMP280;68451;49.510;6.026;2023-05-10T01:17:30;97487.38;;;12.20
79053;BMP280;68451;49.510;6.026;2023-05-10T01:19:56;97510.28;;;12.29
79053;BMP280;68451;49.510;6.026;2023-05-10T01:25:46;97513.53;;;12.36
79053;BMP280;68451;49.510;6.026;2023-05-10T01:28:39;97551.50;;;12.61
79053;BMP280;68451;49.510;6.026;2023-05-10T01:31:40;97554.13;;;12.61
79053;BMP280;68451;49.510;6.026;2023-05-10T01:34:22;97534.28;;;12.43
79053;BMP280;68451;49.510;6.026;2023-05-10T01:36:58;97520.09;;;12.39
79053;BMP280;68451;49.510;6.026;2023-05-10T01:39:35;97554.91;;;12.61
79053;BMP280;68451;49.510;6.026;2023-05-10T01:42:10;97557.59;;;12.66
79053;BMP280;68451;49.510;6.026;2023-05-10T01:44:40;97482.41;;;12.18
79053;BMP280;68451;49.510;6.026;2023-05-10T01:47:10;97508.69;;;12.28
79053;BMP280;68451;49.510;6.026;2023-05-10T01:49:41;97544.69;;;12.60
79053;BMP280;68451;49.510;6.026;2023-05-10T01:52:10;97556.16;;;12.53
79053;BMP280;68451;49.510;6.026;2023-05-10T01:54:43;97510.41;;;12.18
79053;BMP280;68451;49.510;6.026;2023-05-10T01:57:10;97550.63;;;12.33
79053;BMP280;68451;49.510;6.026;2023-05-10T01:59:40;97516.97;;;12.20
79053;BMP280;68451;49.510;6.026;2023-05-10T02:02:10;97572.31;;;12.50
79053;BMP280;68451;49.510;6.026;2023-05-10T02:04:38;97534.56;;;12.25
79053;BMP280;68451;49.510;6.026;2023-05-10T02:07:05;97568.53;;;12.41
79053;BMP280;68451;49.510;6.026;2023-05-10T02:09:32;97560.56;;;12.31
79053;BMP280;68451;49.510;6.026;2023-05-10T02:12:00;97558.97;;;12.30
79053;BMP280;68451;49.510;6.026;2023-05-10T02:14:29;97554.16;;;12.22
79053;BMP280;68451;49.510;6.026;2023-05-10T02:16:56;97543.78;;;12.10
79053;BMP280;68451;49.510;6.026;2023-05-10T02:19:24;97537.16;;;12.03
79053;BMP280;68451;49.510;6.026;2023-05-10T02:21:51;97553.16;;;12.06
79053;BMP280;68451;49.510;6.026;2023-05-10T02:24:17;97399.84;;;11.12
79053;BMP280;68451;49.510;6.026;2023-05-10T02:26:45;97491.53;;;11.60
79053;BMP280;68451;49.510;6.026;2023-05-10T02:29:13;97527.66;;;11.80
79053;BMP280;68451;49.510;6.026;2023-05-10T02:31:40;97541.47;;;11.76
79053;BMP280;68451;49.510;6.026;2023-05-10T02:34:10;97483.47;;;11.45
79053;BMP280;68451;49.510;6.026;2023-05-10T02:36:38;97498.81;;;11.58
79053;BMP280;68451;49.510;6.026;2023-05-10T02:39:04;97560.00;;;11.91
79053;BMP280;68451;49.510;6.026;2023-05-10T02:41:36;97511.09;;;11.58
79053;BMP280;68451;49.510;6.026;2023-05-10T02:44:02;97511.81;;;11.53
79053;BMP280;68451;49.510;6.026;2023-05-10T02:46:30;97529.09;;;11.54
79053;BMP280;68451;49.510;6.026;2023-05-10T02:48:56;97524.72;;;11.43
79053;BMP280;68451;49.510;6.026;2023-05-10T02:51:24;97576.56;;;11.80
79053;BMP280;68451;49.510;6.026;2023-05-10T02:53:52;97556.13;;;11.60
79053;BMP280;68451;49.510;6.026;2023-05-10T02:56:25;97583.09;;;11.77
79053;BMP280;68451;49.510;6.026;2023-05-10T02:58:54;97562.44;;;11.64
79053;BMP280;68451;49.510;6.026;2023-05-10T03:01:20;97579.91;;;11.75
79053;BMP280;68451;49.510;6.026;2023-05-10T03:03:46;97555.31;;;11.59
79053;BMP280;68451;49.510;6.026;2023-05-10T03:06:11;97581.59;;;11.69
79053;BMP280;68451;49.510;6.026;2023-05-10T03:08:37;97558.34;;;11.51
79053;BMP280;68451;49.510;6.026;2023-05-10T03:11:38;97522.97;;;11.32
79053;BMP280;68451;49.510;6.026;2023-05-10T03:14:16;97583.09;;;11.65
79053;BMP280;68451;49.510;6.026;2023-05-10T03:16:48;97567.41;;;11.65
79053;BMP280;68451;49.510;6.026;2023-05-10T03:19:24;97540.78;;;11.35
79053;BMP280;68451;49.510;6.026;2023-05-10T03:21:53;97535.72;;;11.29
79053;BMP280;68451;49.510;6.026;2023-05-10T03:24:21;97548.72;;;11.40
79053;BMP280;68451;49.510;6.026;2023-05-10T03:26:49;97517.50;;;11.17
79053;BMP280;68451;49.510;6.026;2023-05-10T03:29:15;97567.19;;;11.50
79053;BMP280;68451;49.510;6.026;2023-05-10T03:31:42;97544.28;;;11.24
79053;BMP280;68451;49.510;6.026;2023-05-10T03:34:08;97573.59;;;11.43
79053;BMP280;68451;49.510;6.026;2023-05-10T03:36:33;97502.63;;;10.89
79053;BMP280;68451;49.510;6.026;2023-05-10T03:38:59;97575.34;;;11.37
79053;BMP280;68451;49.510;6.026;2023-05-10T03:41:24;97577.38;;;11.35
79053;BMP280;68451;49.510;6.026;2023-05-10T03:43:51;97588.53;;;11.31
79053;BMP280;68451;49.510;6.026;2023-05-10T03:46:16;97570.69;;;11.11
79053;BMP280;68451;49.510;6.026;2023-05-10T03:48:42;97551.81;;;10.92
79053;BMP280;68451;49.510;6.026;2023-05-10T03:51:07;97516.47;;;10.73
79053;BMP280;68451;49.510;6.026;2023-05-10T03:53:33;97385.69;;;9.89
79053;BMP280;68451;49.510;6.026;2023-05-10T03:55:58;97546.28;;;10.89
79053;BMP280;68451;49.510;6.026;2023-05-10T03:58:24;97579.47;;;11.05
79053;BMP280;68451;49.510;6.026;2023-05-10T04:00:51;97577.31;;;11.02
79053;BMP280;68451;49.510;6.026;2023-05-10T04:03:16;97545.06;;;10.80
79053;BMP280;68451;49.510;6.026;2023-05-10T04:05:42;97590.22;;;11.08
79053;BMP280;68451;49.510;6.026;2023-05-10T04:08:07;97610.31;;;11.19
79053;BMP280;68451;49.510;6.026;2023-05-10T04:10:33;97614.84;;;11.24
79053;BMP280;68451;49.510;6.026;2023-05-10T04:12:58;97529.28;;;10.74
79053;BMP280;68451;49.510;6.026;2023-05-10T04:15:24;97599.44;;;11.11
79053;BMP280;68451;49.510;6.026;2023-05-10T04:17:49;97590.66;;;11.17
79053;BMP280;68451;49.510;6.026;2023-05-10T04:20:15;97514.06;;;10.71
79053;BMP280;68451;49.510;6.026;2023-05-10T04:22:41;97613.97;;;11.35
79053;BMP280;68451;49.510;6.026;2023-05-10T04:25:07;97603.50;;;11.18
79053;BMP280;68451;49.510;6.026;2023-05-10T04:27:33;97599.28;;;11.17
79053;BMP280;68451;49.510;6.026;2023-05-10T04:29:58;97559.38;;;10.94
79053;BMP280;68451;49.510;6.026;2023-05-10T04:32:24;97561.81;;;11.12
79053;BMP280;68451;49.510;6.026;2023-05-10T04:34:49;97443.97;;;10.35
79053;BMP280;68451;49.510;6.026;2023-05-10T04:37:16;97619.88;;;11.42
79053;BMP280;68451;49.510;6.026;2023-05-10T04:39:42;97565.00;;;11.14
79053;BMP280;68451;49.510;6.026;2023-05-10T04:42:07;97479.16;;;10.61
79053;BMP280;68451;49.510;6.026;2023-05-10T04:44:33;97555.03;;;11.11
79053;BMP280;68451;49.510;6.026;2023-05-10T04:46:59;97583.00;;;11.27
79053;BMP280;68451;49.510;6.026;2023-05-10T04:49:24;97619.56;;;11.55
79053;BMP280;68451;49.510;6.026;2023-05-10T04:51:50;97607.13;;;11.46
79053;BMP280;68451;49.510;6.026;2023-05-10T04:54:15;97631.38;;;11.58
79053;BMP280;68451;49.510;6.026;2023-05-10T04:56:41;97598.47;;;11.45
79053;BMP280;68451;49.510;6.026;2023-05-10T04:59:06;97624.41;;;11.63
79053;BMP280;68451;49.510;6.026;2023-05-10T05:01:32;97634.94;;;11.68
